Corpus Christi International Airport Corpus Christi US
ICAO: KCRP
IATA: CRP
Category: Large
Scheduled Services: Yes

Elevation: 44 ft
TransAlt. 18000 ft.

Airport Communications:
APP/DEP:120.9
ATIS:126.8
CLNC DEL:118.55
GND:121.9
SAN ANGELO RDO:122.65
TWR:119.4
UNICOM:122.95

KCRP Zoom In..

Runways:

(A) RW 13 length 7508 ft width 150 ft
ILS 110.30 / hdg 129

(B) RW 17 length 6080 ft width 150 ft
LOC 110.30 / hdg 172

(C) RW 31 length 7508 ft width 150 ft
LOC 110.30 / hdg 309

(D) RW 35 length 6080 ft width 150 ft
ILS 109.50 / hdg 352

Location; KCRP
Day. 23 / Time. 06.51 Zulu
* Altimeter: 29.89
* Temperature: 26° c. 78.8°f.
* Wind from: 180° Speed 08 kn.
Dewpoint: 26° c.
Visibility: 10 Statute Miles.
Clouds: Few 25000 ft.

KCRP 230651Z 18008KT 10SM FEW250 26/26 A2989 RMK AO2 SLP118 T02610261 $


Wind From 180°
Speed 08 kn.

 
 
jpsmedia.com for Web Design worldairports.se 2018   terms of use